Time;durP1;ratioP1;P1;durP2;ratioP2;P2;SDS_P1;SDS_P2;PMS_P1;PMS_P2;Temp;Humidity;BMP_temperature;BMP_pressure;BME280_temperature;BME280_humidity;BME280_pressure;Samples;Min_cycle;Max_cycle;Signal;HPM_P1;HPM_P2
2023/06/03 00:00:05;;;;;;;5.50;4.05;;;21.50;96.70;;;;;;5062815;28;20052;-72
2023/06/03 00:02:33;;;;;;;6.57;4.45;;;21.40;96.70;;;;;;5044890;28;20402;-72
2023/06/03 00:05:01;;;;;;;5.75;4.47;;;21.30;96.70;;;;;;5062483;28;20059;-72
2023/06/03 00:07:29;;;;;;;6.63;4.45;;;21.30;96.70;;;;;;5062180;28;20047;-72
2023/06/03 00:09:59;;;;;;;5.88;4.85;;;21.20;96.70;;;;;;5062121;28;20110;-72
2023/06/03 00:12:27;;;;;;;7.10;4.45;;;21.20;96.70;;;;;;5060921;28;20097;-72
2023/06/03 00:14:55;;;;;;;7.45;4.93;;;21.20;96.70;;;;;;5060779;28;20041;-72
2023/06/03 00:17:26;;;;;;;9.02;4.60;;;21.10;96.70;;;;;;5061946;28;20502;-72
2023/06/03 00:19:54;;;;;;;9.25;5.53;;;21.00;96.70;;;;;;5061952;28;20533;-72
2023/06/03 00:22:23;;;;;;;5.20;4.43;;;20.90;96.70;;;;;;5062284;28;20044;-72
2023/06/03 00:24:51;;;;;;;5.65;4.90;;;20.80;96.70;;;;;;5062333;28;20103;-72
2023/06/03 00:27:20;;;;;;;5.75;4.40;;;21.00;96.70;;;;;;5061069;28;20068;-72
2023/06/03 00:29:48;;;;;;;5.68;4.93;;;21.10;96.70;;;;;;5061790;28;20071;-72
2023/06/03 00:32:16;;;;;;;6.20;5.07;;;21.10;96.70;;;;;;5060982;28;20040;-72
2023/06/03 00:34:44;;;;;;;8.70;5.15;;;21.00;96.70;;;;;;5054234;28;20044;-72
2023/06/03 00:37:11;;;;;;;5.35;4.75;;;21.00;96.70;;;;;;5062808;28;20037;-72
2023/06/03 00:39:39;;;;;;;9.38;5.10;;;21.00;96.70;;;;;;5062445;28;20049;-72
2023/06/03 00:42:07;;;;;;;6.05;4.60;;;21.00;96.70;;;;;;5062142;28;20052;-72
2023/06/03 00:44:37;;;;;;;7.10;4.40;;;21.00;96.70;;;;;;5060069;28;20055;-72
2023/06/03 00:47:06;;;;;;;6.32;4.85;;;20.90;96.70;;;;;;5061114;28;20470;-72
2023/06/03 00:49:34;;;;;;;7.43;4.72;;;20.90;96.70;;;;;;5062086;28;20057;-72
2023/06/03 00:52:04;;;;;;;7.13;5.15;;;20.90;96.70;;;;;;5060116;28;20105;-72
2023/06/03 00:54:32;;;;;;;7.95;4.88;;;21.00;96.70;;;;;;5062015;28;20052;-72
2023/06/03 00:57:04;;;;;;;6.80;5.10;;;21.00;96.70;;;;;;5060855;28;20410;-72
2023/06/03 00:59:32;;;;;;;6.20;4.82;;;20.80;96.70;;;;;;5059820;28;20052;-72
2023/06/03 01:02:02;;;;;;;7.53;5.05;;;20.70;96.70;;;;;;5060588;28;20080;-72
2023/06/03 01:04:30;;;;;;;7.00;5.25;;;20.70;96.70;;;;;;5061168;28;20551;-72
2023/06/03 01:07:12;;;;;;;6.68;4.20;;;20.80;96.70;;;;;;5064569;28;20044;-72
2023/06/03 01:09:56;;;;;;;7.22;4.93;;;20.70;96.70;;;;;;5043844;28;20064;-72
2023/06/03 01:12:30;;;;;;;6.30;4.20;;;20.70;96.70;;;;;;5059817;28;20498;-72
2023/06/03 01:14:59;;;;;;;5.65;4.38;;;20.60;96.70;;;;;;5064125;28;20056;-72
2023/06/03 01:17:31;;;;;;;6.60;4.50;;;20.60;96.70;;;;;;5063926;28;20076;-72
2023/06/03 01:19:59;;;;;;;6.93;4.43;;;20.60;96.70;;;;;;5063681;28;20048;-72
2023/06/03 01:22:28;;;;;;;6.15;4.63;;;20.70;96.70;;;;;;5047105;28;20075;-72
2023/06/03 01:25:08;;;;;;;5.72;4.55;;;20.60;96.70;;;;;;5065120;28;20051;-71
2023/06/03 01:27:37;;;;;;;5.22;4.72;;;20.60;96.70;;;;;;5063932;28;20049;-72
2023/06/03 01:30:08;;;;;;;6.50;4.95;;;20.50;96.70;;;;;;5063906;28;20079;-72
2023/06/03 01:32:38;;;;;;;5.63;4.55;;;20.50;96.70;;;;;;5054823;28;20060;-72
2023/06/03 01:35:08;;;;;;;6.05;4.70;;;20.50;96.70;;;;;;5065230;28;20040;-72
2023/06/03 01:37:36;;;;;;;7.93;5.00;;;20.40;96.70;;;;;;5044086;28;20111;-72
2023/06/03 01:40:07;;;;;;;8.40;4.90;;;20.40;96.70;;;;;;5095231;28;20123;-72
2023/06/03 01:42:37;;;;;;;10.00;4.72;;;20.30;96.70;;;;;;5062527;28;20136;-72
2023/06/03 01:45:06;;;;;;;7.38;5.00;;;20.40;96.70;;;;;;5065130;28;20044;-72
2023/06/03 01:47:34;;;;;;;6.38;4.35;;;20.50;96.70;;;;;;5064497;28;20040;-72
2023/06/03 01:50:03;;;;;;;7.40;4.30;;;20.60;96.70;;;;;;5064746;28;20051;-73
2023/06/03 01:52:31;;;;;;;7.18;4.80;;;20.60;96.70;;;;;;5063142;28;20060;-72
2023/06/03 01:54:59;;;;;;;6.10;4.25;;;20.50;96.70;;;;;;5046511;28;20680;-72
2023/06/03 01:57:28;;;;;;;4.93;3.97;;;20.40;96.70;;;;;;5046487;28;20052;-72
2023/06/03 01:59:56;;;;;;;4.15;3.75;;;20.40;96.70;;;;;;5062652;28;20706;-72
2023/06/03 02:02:24;;;;;;;8.82;4.07;;;20.40;96.70;;;;;;5062319;28;20040;-73
2023/06/03 02:04:56;;;;;;;5.95;3.88;;;20.40;96.70;;;;;;5064089;28;20044;-72
2023/06/03 02:07:25;;;;;;;4.80;3.78;;;20.50;96.70;;;;;;5063130;28;20048;-73
2023/06/03 02:09:53;;;;;;;6.10;4.00;;;20.40;96.70;;;;;;5064130;28;20048;-72
2023/06/03 02:12:21;;;;;;;6.60;3.70;;;20.40;96.70;;;;;;5062766;28;20153;-72
2023/06/03 02:14:54;;;;;;;4.32;3.85;;;20.40;96.70;;;;;;5061980;28;20040;-72
2023/06/03 02:17:24;;;;;;;5.95;4.03;;;20.40;96.70;;;;;;5061900;28;20417;-72
2023/06/03 02:19:52;;;;;;;6.57;4.13;;;20.30;96.70;;;;;;5062758;28;20485;-72
2023/06/03 02:22:21;;;;;;;6.53;3.60;;;20.30;96.70;;;;;;5062126;28;20044;-72
2023/06/03 02:24:50;;;;;;;6.78;4.20;;;20.30;96.70;;;;;;5062357;28;20045;-73
2023/06/03 02:27:19;;;;;;;4.78;4.03;;;20.30;96.70;;;;;;5045925;28;20043;-72
2023/06/03 02:29:50;;;;;;;4.63;3.90;;;20.30;96.70;;;;;;5063358;28;20048;-72
2023/06/03 02:32:20;;;;;;;5.95;4.13;;;20.20;96.70;;;;;;5061898;28;20076;-72
2023/06/03 02:34:50;;;;;;;5.75;3.67;;;20.20;96.70;;;;;;5064005;28;20040;-72
2023/06/03 02:37:18;;;;;;;4.28;3.88;;;20.10;96.70;;;;;;5062470;28;20143;-72
2023/06/03 02:39:46;;;;;;;4.03;3.58;;;20.10;96.70;;;;;;5064064;28;20890;-72
2023/06/03 02:42:14;;;;;;;9.05;4.20;;;20.00;96.70;;;;;;5062703;28;20049;-72
2023/06/03 02:44:43;;;;;;;6.07;3.47;;;19.90;96.70;;;;;;5062601;28;20037;-72
2023/06/03 02:47:11;;;;;;;8.40;3.80;;;20.10;96.70;;;;;;5063001;28;20070;-72
2023/06/03 02:49:41;;;;;;;6.75;3.85;;;20.10;96.70;;;;;;5055593;28;20605;-72
2023/06/03 02:52:09;;;;;;;3.95;3.55;;;20.00;96.70;;;;;;5061629;28;20597;-72
2023/06/03 02:54:37;;;;;;;6.50;3.78;;;20.00;96.70;;;;;;5061633;28;20871;-71
2023/06/03 02:57:07;;;;;;;4.90;3.78;;;20.00;96.70;;;;;;5042159;28;20041;-72
2023/06/03 02:59:36;;;;;;;5.90;3.60;;;20.00;96.70;;;;;;5062301;28;20032;-72
2023/06/03 03:02:04;;;;;;;6.88;4.10;;;20.10;96.70;;;;;;5061730;28;20040;-72
2023/06/03 03:04:36;;;;;;;8.40;4.05;;;20.00;96.70;;;;;;5061740;28;20464;-72
2023/06/03 03:07:09;;;;;;;5.70;3.47;;;20.00;96.70;;;;;;5045831;28;20059;-72
2023/06/03 03:09:38;;;;;;;4.80;3.67;;;20.00;96.70;;;;;;5063634;28;20044;-72
2023/06/03 03:12:09;;;;;;;8.10;4.45;;;20.10;96.70;;;;;;5061219;28;20044;-72
2023/06/03 03:14:41;;;;;;;7.32;4.07;;;20.00;96.70;;;;;;5061503;28;20425;-71
2023/06/03 03:17:09;;;;;;;7.28;4.57;;;20.10;96.70;;;;;;5061628;28;20055;-72
2023/06/03 03:19:37;;;;;;;6.55;4.07;;;20.00;96.70;;;;;;5061955;28;20558;-72
2023/06/03 03:22:06;;;;;;;7.22;4.18;;;20.00;96.70;;;;;;5061768;28;20597;-71
2023/06/03 03:24:35;;;;;;;7.32;4.10;;;20.00;96.70;;;;;;5060649;28;20052;-72
2023/06/03 03:27:04;;;;;;;8.88;4.25;;;19.90;96.70;;;;;;5053231;28;20072;-72
2023/06/03 03:29:35;;;;;;;4.50;3.90;;;19.90;96.70;;;;;;5060964;28;20041;-72
2023/06/03 03:32:08;;;;;;;7.53;4.15;;;19.90;96.70;;;;;;5060925;28;20076;-72
2023/06/03 03:34:42;;;;;;;6.32;4.18;;;20.00;96.70;;;;;;5061174;28;20151;-72
2023/06/03 03:37:14;;;;;;;6.72;4.47;;;19.90;96.70;;;;;;5061793;28;20068;-72
2023/06/03 03:39:45;;;;;;;6.07;4.47;;;20.00;96.70;;;;;;5061446;28;20140;-72
2023/06/03 03:42:14;;;;;;;5.70;3.95;;;20.00;96.70;;;;;;5061169;28;20049;-72
2023/06/03 03:44:42;;;;;;;5.03;4.18;;;20.00;96.70;;;;;;5061217;28;20052;-72
2023/06/03 03:47:20;;;;;;;7.15;4.40;;;20.00;96.70;;;;;;5062580;28;20048;-72
2023/06/03 03:49:49;;;;;;;5.72;4.40;;;19.90;96.70;;;;;;5053766;28;20056;-72
2023/06/03 03:52:29;;;;;;;7.90;4.45;;;20.00;96.70;;;;;;5061052;28;20215;-72
2023/06/03 03:55:00;;;;;;;7.47;4.93;;;19.90;96.70;;;;;;5061370;28;20523;-72
2023/06/03 03:57:31;;;;;;;5.57;3.65;;;19.90;96.70;;;;;;5043884;28;20044;-73
2023/06/03 04:00:00;;;;;;;5.10;3.60;;;19.90;96.70;;;;;;5060703;28;20671;-72
2023/06/03 04:02:32;;;;;;;5.15;3.80;;;19.90;96.70;;;;;;5062138;28;20051;-72
2023/06/03 04:05:00;;;;;;;6.15;4.10;;;19.90;96.70;;;;;;5062532;28;20615;-72
2023/06/03 04:07:38;;;;;;;5.22;3.30;;;19.90;96.70;;;;;;5061169;28;20572;-72
2023/06/03 04:10:09;;;;;;;4.85;4.05;;;19.90;96.70;;;;;;5060928;28;20072;-72
2023/06/03 04:12:38;;;;;;;4.15;3.30;;;20.00;96.70;;;;;;5062415;28;20559;-72
2023/06/03 04:15:12;;;;;;;6.03;3.42;;;19.90;96.70;;;;;;5060502;28;20052;-72
2023/06/03 04:17:41;;;;;;;7.07;3.55;;;20.00;96.70;;;;;;5040623;28;20059;-72
2023/06/03 04:20:21;;;;;;;8.85;3.85;;;19.90;96.70;;;;;;5059949;28;20679;-72
2023/06/03 04:22:53;;;;;;;7.00;3.65;;;20.00;96.70;;;;;;5060774;28;20054;-72
2023/06/03 04:25:25;;;;;;;4.35;3.70;;;19.90;96.70;;;;;;5060211;28;20078;-72
2023/06/03 04:27:55;;;;;;;6.28;3.47;;;19.80;96.70;;;;;;5062231;28;20040;-72
2023/06/03 04:30:23;;;;;;;5.10;3.50;;;19.90;96.70;;;;;;5059160;28;20563;-72
2023/06/03 04:32:52;;;;;;;5.07;3.67;;;20.00;96.70;;;;;;5060280;28;20044;-72
2023/06/03 04:35:25;;;;;;;5.30;3.50;;;20.10;96.70;;;;;;5061098;28;20121;-72
2023/06/03 04:38:11;;;;;;;5.40;4.28;;;20.00;96.70;;;;;;5062674;28;20106;-72
2023/06/03 04:40:40;;;;;;;4.05;3.65;;;20.00;96.70;;;;;;5063417;28;20052;-72
2023/06/03 04:43:11;;;;;;;5.53;3.35;;;20.10;96.70;;;;;;5064351;28;20044;-72
2023/06/03 04:45:39;;;;;;;8.57;4.30;;;20.00;96.70;;;;;;5064576;28;20406;-72
2023/06/03 04:48:12;;;;;;;7.03;3.60;;;20.00;96.70;;;;;;5064039;28;20071;-73
2023/06/03 04:50:44;;;;;;;6.68;3.13;;;19.90;96.70;;;;;;5047329;28;20063;-72
2023/06/03 04:53:14;;;;;;;8.13;4.47;;;19.90;96.70;;;;;;5057671;28;20513;-72
2023/06/03 04:55:44;;;;;;;5.78;3.90;;;19.90;96.70;;;;;;5063803;28;20462;-71
2023/06/03 04:58:18;;;;;;;5.97;3.70;;;20.00;96.70;;;;;;5048881;28;20063;-72
2023/06/03 05:00:49;;;;;;;7.07;4.70;;;19.90;96.70;;;;;;5063988;28;20041;-72
2023/06/03 05:03:18;;;;;;;6.75;4.80;;;19.90;96.70;;;;;;5046488;28;20147;-72
2023/06/03 05:05:46;;;;;;;7.22;4.53;;;19.90;96.70;;;;;;5047845;28;20047;-72
2023/06/03 05:08:20;;;;;;;6.38;4.53;;;20.00;96.70;;;;;;5064436;28;20044;-72
2023/06/03 05:10:51;;;;;;;5.82;4.75;;;20.20;96.70;;;;;;5045233;28;20094;-72
2023/06/03 05:13:20;;;;;;;7.13;4.85;;;20.20;96.70;;;;;;5047732;28;20711;-72
2023/06/03 05:15:49;;;;;;;6.40;4.70;;;20.20;96.70;;;;;;5063445;28;20044;-72
2023/06/03 05:18:17;;;;;;;6.05;4.40;;;20.20;96.70;;;;;;5063452;28;20144;-72
2023/06/03 05:20:46;;;;;;;6.05;4.60;;;20.10;96.70;;;;;;5044125;28;20141;-74
2023/06/03 05:23:15;;;;;;;5.57;5.03;;;20.30;96.70;;;;;;5061898;28;20046;-72
2023/06/03 05:25:45;;;;;;;9.65;5.35;;;20.40;96.70;;;;;;5063255;28;20044;-72
2023/06/03 05:28:14;;;;;;;5.90;4.78;;;20.50;96.70;;;;;;5062754;28;20135;-72
2023/06/03 05:30:42;;;;;;;5.00;4.50;;;20.50;96.70;;;;;;5046897;28;20520;-72
2023/06/03 05:33:22;;;;;;;7.80;4.85;;;20.60;96.70;;;;;;5063798;28;20057;-72
2023/06/03 05:35:51;;;;;;;5.28;4.78;;;20.70;96.70;;;;;;5063665;28;20126;-72
2023/06/03 05:38:20;;;;;;;8.02;4.80;;;20.80;96.70;;;;;;5062503;28;20067;-72
2023/06/03 05:40:50;;;;;;;7.57;5.13;;;20.80;96.70;;;;;;5065152;28;20123;-72
2023/06/03 05:43:23;;;;;;;8.05;4.15;;;20.70;96.70;;;;;;5063799;28;20583;-72
2023/06/03 05:45:53;;;;;;;5.60;4.70;;;20.70;96.70;;;;;;5063181;28;20056;-72
2023/06/03 05:48:23;;;;;;;5.93;4.78;;;20.80;96.70;;;;;;5062831;28;20136;-72
2023/06/03 05:50:53;;;;;;;7.22;4.30;;;20.90;96.70;;;;;;5061589;28;20056;-72
2023/06/03 05:53:24;;;;;;;6.50;4.72;;;21.00;96.70;;;;;;5056035;28;20153;-72
2023/06/03 05:55:56;;;;;;;5.53;4.40;;;21.10;96.70;;;;;;5063327;28;20144;-72
2023/06/03 05:58:28;;;;;;;7.07;4.40;;;21.20;96.70;;;;;;5062910;28;20102;-72
2023/06/03 06:00:56;;;;;;;5.32;4.82;;;21.20;96.70;;;;;;5062766;28;20094;-72
2023/06/03 06:03:24;;;;;;;6.18;4.57;;;21.20;96.70;;;;;;5045920;28;20090;-72
2023/06/03 06:05:53;;;;;;;7.47;4.72;;;21.20;96.70;;;;;;5064428;28;20714;-72
2023/06/03 06:08:21;;;;;;;8.18;5.07;;;21.30;96.70;;;;;;5063006;28;20047;-72
2023/06/03 06:10:49;;;;;;;7.93;5.30;;;21.30;96.70;;;;;;5064643;28;20048;-72
2023/06/03 06:13:18;;;;;;;9.07;6.10;;;21.50;96.70;;;;;;5062945;28;20365;-73
2023/06/03 06:15:57;;;;;;;6.47;5.43;;;21.50;96.70;;;;;;5063203;28;20040;-72
2023/06/03 06:18:25;;;;;;;6.18;5.30;;;21.60;96.70;;;;;;5055765;28;20052;-73
2023/06/03 06:20:54;;;;;;;7.65;5.30;;;21.70;96.70;;;;;;5062734;28;20700;-72
2023/06/03 06:23:23;;;;;;;5.97;5.13;;;21.70;96.70;;;;;;5063104;28;20045;-72
2023/06/03 06:25:52;;;;;;;7.78;5.47;;;21.70;96.70;;;;;;5063063;28;20486;-72
2023/06/03 06:28:29;;;;;;;8.13;5.22;;;21.70;96.70;;;;;;5062430;28;20041;-72
2023/06/03 06:31:06;;;;;;;5.82;5.30;;;21.70;96.70;;;;;;5047692;28;20076;-73
2023/06/03 06:33:48;;;;;;;8.73;5.57;;;21.80;96.70;;;;;;5046623;28;20044;-72
2023/06/03 06:36:41;;;;;;;6.50;5.70;;;21.80;96.70;;;;;;5062514;28;20068;-72
2023/06/03 06:39:48;;;;;;;6.68;5.55;;;21.90;96.70;;;;;;5062689;28;20132;-72
2023/06/03 06:42:39;;;;;;;6.47;5.82;;;21.90;96.70;;;;;;5078507;28;20114;-72
2023/06/03 06:45:27;;;;;;;6.63;5.60;;;21.90;96.70;;;;;;5063687;28;20311;-72
2023/06/03 06:48:07;;;;;;;6.85;5.05;;;21.90;96.70;;;;;;5061676;28;20043;-72
2023/06/03 06:50:48;;;;;;;8.15;5.43;;;21.90;96.70;;;;;;5061673;28;20103;-72
2023/06/03 06:53:20;;;;;;;7.53;5.97;;;21.90;96.70;;;;;;5061848;28;20044;-72
2023/06/03 06:55:52;;;;;;;7.38;5.80;;;22.00;96.70;;;;;;5045590;28;20076;-72
2023/06/03 06:58:37;;;;;;;5.65;4.97;;;22.10;96.70;;;;;;5061923;28;20094;-72
2023/06/03 07:01:11;;;;;;;6.97;6.10;;;22.10;96.70;;;;;;5061192;28;20063;-72
2023/06/03 07:03:44;;;;;;;7.03;5.60;;;22.20;96.70;;;;;;5045326;28;20059;-72
2023/06/03 07:06:15;;;;;;;7.93;7.07;;;22.30;96.70;;;;;;5061591;28;20087;-72
2023/06/03 07:08:44;;;;;;;9.13;8.23;;;22.40;96.70;;;;;;5061802;28;20494;-72
2023/06/03 07:11:14;;;;;;;7.70;6.72;;;22.50;96.70;;;;;;5062689;28;20078;-72
2023/06/03 07:13:56;;;;;;;9.30;7.65;;;22.50;96.70;;;;;;5039672;28;20095;-72
2023/06/03 07:16:26;;;;;;;10.00;8.35;;;22.60;96.70;;;;;;5062962;28;20040;-72
2023/06/03 07:18:55;;;;;;;10.13;8.63;;;22.60;96.70;;;;;;5044213;28;20048;-72
2023/06/03 07:21:33;;;;;;;7.80;7.10;;;22.60;96.70;;;;;;5060341;28;20044;-72
2023/06/03 07:24:03;;;;;;;8.82;8.02;;;22.60;96.70;;;;;;5045165;28;20087;-72
2023/06/03 07:26:34;;;;;;;9.50;6.78;;;22.60;96.70;;;;;;5061485;28;20064;-72
2023/06/03 07:29:04;;;;;;;7.72;7.00;;;22.70;96.70;;;;;;5061482;28;20369;-72
2023/06/03 07:31:39;;;;;;;8.32;6.55;;;22.70;96.70;;;;;;5061145;28;20040;-72
2023/06/03 07:34:10;;;;;;;8.40;7.35;;;22.80;96.70;;;;;;5062193;28;20050;-72
2023/06/03 07:36:41;;;;;;;7.40;6.70;;;22.90;96.70;;;;;;5045386;28;20052;-72
2023/06/03 07:39:17;;;;;;;11.45;9.05;;;22.90;96.70;;;;;;5063292;28;20121;-72
2023/06/03 07:41:51;;;;;;;13.27;11.88;;;23.00;96.70;;;;;;5045888;28;20113;-72
2023/06/03 07:44:42;;;;;;;14.52;11.80;;;23.00;96.70;;;;;;5054896;28;20126;-72
2023/06/03 07:47:14;;;;;;;13.23;11.75;;;23.00;96.70;;;;;;5060835;28;20557;-72
2023/06/03 07:49:44;;;;;;;12.35;11.10;;;23.00;96.70;;;;;;5061227;28;20410;-72
2023/06/03 07:52:15;;;;;;;11.40;10.15;;;23.00;96.70;;;;;;5061665;28;20140;-72
2023/06/03 07:54:44;;;;;;;11.18;10.05;;;22.80;96.70;;;;;;5062716;28;20049;-72
2023/06/03 07:57:13;;;;;;;13.05;11.27;;;22.70;96.70;;;;;;5061721;28;20045;-72
2023/06/03 07:59:47;;;;;;;10.57;9.20;;;22.70;96.70;;;;;;5062830;28;20466;-72
2023/06/03 08:02:17;;;;;;;12.77;9.57;;;22.90;96.70;;;;;;5044821;28;20518;-72
2023/06/03 08:04:45;;;;;;;13.82;9.57;;;23.00;96.70;;;;;;5060603;28;20055;-72
2023/06/03 08:07:14;;;;;;;9.95;8.95;;;23.00;96.70;;;;;;5061746;28;20040;-72
2023/06/03 08:09:42;;;;;;;11.38;10.02;;;23.00;96.70;;;;;;5062798;28;20043;-72
2023/06/03 08:12:10;;;;;;;13.00;8.52;;;23.00;96.70;;;;;;5059188;28;20048;-72
2023/06/03 08:14:39;;;;;;;10.15;9.05;;;23.10;96.70;;;;;;5065333;28;20041;-72
2023/06/03 08:17:10;;;;;;;10.88;9.45;;;23.10;96.70;;;;;;5064338;28;20483;-71
2023/06/03 08:19:43;;;;;;;8.98;8.18;;;23.20;96.70;;;;;;5065233;28;20051;-72
2023/06/03 08:22:35;;;;;;;9.25;7.90;;;23.30;96.70;;;;;;5066877;28;20044;-72
2023/06/03 08:25:03;;;;;;;6.07;5.50;;;23.40;96.70;;;;;;5065600;28;20040;-72
2023/06/03 08:27:32;;;;;;;5.88;5.28;;;23.50;96.70;;;;;;5064747;28;20159;-72
2023/06/03 08:30:03;;;;;;;5.32;4.82;;;23.50;96.70;;;;;;5066193;28;20719;-72
2023/06/03 08:32:33;;;;;;;5.68;4.82;;;23.50;96.70;;;;;;5064696;28;20049;-72
2023/06/03 08:35:04;;;;;;;7.68;5.45;;;23.60;96.70;;;;;;5066795;28;20961;-72
2023/06/03 08:37:33;;;;;;;5.50;5.00;;;23.80;96.70;;;;;;5065526;28;20060;-72
2023/06/03 08:40:06;;;;;;;5.88;5.38;;;23.80;96.70;;;;;;5047474;28;20057;-72
2023/06/03 08:42:40;;;;;;;9.07;5.80;;;23.90;96.70;;;;;;5064971;28;20144;-72
2023/06/03 08:45:10;;;;;;;5.50;4.95;;;23.90;96.70;;;;;;5064752;28;20049;-72
2023/06/03 08:48:05;;;;;;;5.63;5.10;;;24.00;96.70;;;;;;5065576;28;20040;-72
2023/06/03 08:50:36;;;;;;;5.57;5.03;;;24.00;96.70;;;;;;5059753;28;20060;-72
2023/06/03 08:53:08;;;;;;;6.72;5.32;;;24.10;96.70;;;;;;5048289;28;20889;-72
2023/06/03 08:55:58;;;;;;;6.65;5.65;;;24.00;96.70;;;;;;5063763;28;20136;-73
2023/06/03 08:58:32;;;;;;;6.95;5.82;;;24.20;96.70;;;;;;5059406;28;20533;-72
2023/06/03 09:01:03;;;;;;;7.13;5.65;;;24.20;96.70;;;;;;5065595;28;20048;-72
2023/06/03 09:03:32;;;;;;;6.68;5.97;;;24.30;96.70;;;;;;5064551;28;20071;-72
2023/06/03 09:06:02;;;;;;;7.13;5.43;;;24.30;96.70;;;;;;5057510;28;20415;-72
2023/06/03 09:08:31;;;;;;;6.75;5.47;;;24.30;96.70;;;;;;5065589;28;20062;-72
2023/06/03 09:10:59;;;;;;;5.97;5.38;;;24.50;96.70;;;;;;5065855;28;20524;-72
2023/06/03 09:13:30;;;;;;;9.57;6.10;;;24.60;96.70;;;;;;5065550;28;20532;-72
2023/06/03 09:15:59;;;;;;;5.15;4.65;;;24.60;96.70;;;;;;5065004;28;20066;-72
2023/06/03 09:18:27;;;;;;;6.38;5.78;;;24.60;96.70;;;;;;5065088;28;20048;-72
2023/06/03 09:20:56;;;;;;;6.00;5.40;;;24.60;96.70;;;;;;5065752;28;20044;-72
2023/06/03 09:23:27;;;;;;;6.35;5.75;;;24.60;96.70;;;;;;5064433;28;20497;-73
2023/06/03 09:25:56;;;;;;;6.03;5.10;;;24.70;96.70;;;;;;5063406;28;20050;-72
2023/06/03 09:28:23;;;;;;;6.20;5.15;;;24.80;96.70;;;;;;5049900;28;20414;-72
2023/06/03 09:30:51;;;;;;;7.18;5.53;;;24.80;96.70;;;;;;5063986;28;20505;-72
2023/06/03 09:33:20;;;;;;;10.77;6.47;;;24.80;96.70;;;;;;5065358;28;20052;-72
2023/06/03 09:36:06;;;;;;;5.93;5.15;;;24.70;96.70;;;;;;5065712;28;20127;-72
2023/06/03 09:38:50;;;;;;;6.03;5.43;;;24.70;96.70;;;;;;5062320;28;20056;-72
2023/06/03 09:41:20;;;;;;;6.65;5.80;;;24.90;96.70;;;;;;5057077;28;20452;-72
2023/06/03 09:43:58;;;;;;;6.53;5.93;;;24.90;96.70;;;;;;5063917;28;20925;-72
2023/06/03 09:46:28;;;;;;;5.55;5.05;;;24.70;96.70;;;;;;5064296;28;20594;-72
2023/06/03 09:49:07;;;;;;;6.57;5.75;;;24.90;96.70;;;;;;5063853;28;20147;-72
2023/06/03 09:51:43;;;;;;;6.05;5.30;;;25.20;96.70;;;;;;5063014;28;20049;-72
2023/06/03 09:54:14;;;;;;;5.63;4.88;;;25.30;96.70;;;;;;5063394;28;20239;-72
2023/06/03 09:56:43;;;;;;;6.15;5.10;;;25.40;96.70;;;;;;5062976;28;20041;-72
2023/06/03 09:59:15;;;;;;;7.50;5.07;;;25.60;96.70;;;;;;5062635;28;20052;-72
2023/06/03 10:01:47;;;;;;;5.68;5.15;;;25.60;96.70;;;;;;5064767;28;20041;-72
2023/06/03 10:04:20;;;;;;;6.15;5.07;;;25.70;96.70;;;;;;5062643;28;20076;-72
2023/06/03 10:06:49;;;;;;;5.93;5.25;;;25.60;96.70;;;;;;5062935;28;20051;-72
2023/06/03 10:09:20;;;;;;;6.45;5.78;;;25.50;96.70;;;;;;5063539;28;20056;-72
2023/06/03 10:11:49;;;;;;;6.28;4.90;;;25.40;96.70;;;;;;5060638;28;20125;-72
2023/06/03 10:14:25;;;;;;;5.72;5.18;;;25.50;96.70;;;;;;5064276;28;20435;-72
2023/06/03 10:17:04;;;;;;;5.40;4.60;;;25.60;96.70;;;;;;5063441;28;20059;-72
2023/06/03 10:19:34;;;;;;;6.85;5.60;;;25.80;96.70;;;;;;5061507;28;20671;-72
2023/06/03 10:22:15;;;;;;;5.78;5.18;;;25.80;96.70;;;;;;5063002;28;21033;-72
2023/06/03 10:24:45;;;;;;;5.10;4.60;;;25.90;96.70;;;;;;5064223;28;20044;-72
2023/06/03 10:27:15;;;;;;;5.57;5.07;;;26.00;96.70;;;;;;5062714;28;20110;-72
2023/06/03 10:29:43;;;;;;;5.72;5.22;;;26.00;96.70;;;;;;5062873;28;20040;-72
2023/06/03 10:32:16;;;;;;;4.95;4.55;;;26.20;96.70;;;;;;5055944;28;20055;-72
2023/06/03 10:34:44;;;;;;;6.05;5.20;;;26.50;96.70;;;;;;5057910;28;20057;-72
2023/06/03 10:37:14;;;;;;;5.40;4.95;;;26.80;96.70;;;;;;5064256;28;20136;-72
2023/06/03 10:39:44;;;;;;;7.38;5.10;;;27.10;96.70;;;;;;5063603;28;20068;-73
2023/06/03 10:42:12;;;;;;;5.82;5.15;;;27.10;96.70;;;;;;5062816;28;20420;-72
2023/06/03 10:44:41;;;;;;;6.28;5.50;;;27.10;96.70;;;;;;5054093;28;20517;-72
2023/06/03 10:47:14;;;;;;;5.13;4.57;;;27.20;96.70;;;;;;5062383;28;20139;-72
2023/06/03 10:49:47;;;;;;;7.18;4.53;;;27.40;96.70;;;;;;5063625;28;20071;-72
2023/06/03 10:52:49;;;;;;;5.47;4.80;;;27.50;96.70;;;;;;5063455;28;20062;-73
2023/06/03 10:55:30;;;;;;;5.70;5.20;;;27.60;96.70;;;;;;5057711;28;20054;-72
2023/06/03 10:58:02;;;;;;;6.15;5.00;;;27.60;96.70;;;;;;5063380;28;20048;-73
2023/06/03 11:00:52;;;;;;;7.10;4.88;;;27.60;96.70;;;;;;5062043;28;20441;-72
2023/06/03 11:03:23;;;;;;;5.68;5.13;;;27.80;96.70;;;;;;5062104;28;20067;-72
2023/06/03 11:05:51;;;;;;;6.38;5.53;;;28.00;96.70;;;;;;5062366;28;20041;-73
2023/06/03 11:08:57;;;;;;;6.88;5.45;;;28.00;96.70;;;;;;5061687;28;20430;-73
2023/06/03 11:12:13;;;;;;;5.20;4.72;;;27.80;96.70;;;;;;5052711;28;20472;-72
2023/06/03 11:14:56;;;;;;;4.93;4.53;;;27.90;96.70;;;;;;5011090;28;20095;-72
2023/06/03 11:17:25;;;;;;;5.82;5.05;;;28.10;96.70;;;;;;4985764;28;20042;-72
2023/06/03 11:20:35;;;;;;;5.85;4.63;;;28.10;96.70;;;;;;5007866;28;20062;-72
2023/06/03 11:23:03;;;;;;;6.68;4.47;;;28.20;96.70;;;;;;5000272;28;20049;-72
2023/06/03 11:25:32;;;;;;;6.05;5.28;;;28.30;96.70;;;;;;4986730;28;20061;-72
2023/06/03 11:28:36;;;;;;;5.60;4.65;;;28.30;96.70;;;;;;4996163;28;20049;-73
2023/06/03 11:31:07;;;;;;;6.13;4.85;;;28.20;96.70;;;;;;5002583;28;20873;-72
2023/06/03 11:33:36;;;;;;;5.72;5.22;;;28.10;96.70;;;;;;4986663;28;20089;-72
2023/06/03 11:36:56;;;;;;;6.10;4.60;;;28.20;96.70;;;;;;4984474;28;20042;-72
2023/06/03 11:39:24;;;;;;;5.68;5.07;;;28.00;96.70;;;;;;4984701;28;20068;-72
2023/06/03 11:42:08;;;;;;;5.00;4.50;;;27.90;96.70;;;;;;5010945;28;20313;-72
2023/06/03 11:44:38;;;;;;;5.28;4.45;;;27.60;96.70;;;;;;5004250;28;20053;-72
2023/06/03 11:47:08;;;;;;;6.53;4.53;;;27.90;96.70;;;;;;5062076;28;20539;-72
2023/06/03 11:49:40;;;;;;;5.97;4.47;;;28.10;96.70;;;;;;5062727;28;20044;-73
2023/06/03 11:52:09;;;;;;;5.88;3.88;;;28.30;96.70;;;;;;5061614;28;20585;-72
2023/06/03 11:54:39;;;;;;;4.60;4.20;;;28.50;96.70;;;;;;5061578;28;20576;-72
2023/06/03 11:57:08;;;;;;;4.68;4.10;;;28.60;96.70;;;;;;5061570;28;20047;-72
2023/06/03 11:59:42;;;;;;;4.47;3.97;;;28.90;96.70;;;;;;5062125;28;20522;-72
2023/06/03 12:02:11;;;;;;;4.32;3.90;;;28.80;96.70;;;;;;5041309;28;20052;-72
2023/06/03 12:04:40;;;;;;;5.30;3.92;;;28.60;96.70;;;;;;5071363;28;20061;-73
2023/06/03 12:07:15;;;;;;;4.82;3.85;;;28.60;96.70;;;;;;5059395;28;20605;-73
2023/06/03 12:09:43;;;;;;;5.65;3.97;;;28.70;96.70;;;;;;5054909;28;20054;-72
2023/06/03 12:12:13;;;;;;;4.60;4.00;;;28.90;96.70;;;;;;5062201;28;20094;-72
2023/06/03 12:14:44;;;;;;;4.20;3.80;;;29.10;96.70;;;;;;5060811;28;20140;-72
2023/06/03 12:17:16;;;;;;;6.10;4.32;;;29.00;96.70;;;;;;5061851;28;20044;-72
2023/06/03 12:19:46;;;;;;;4.25;3.85;;;28.70;96.70;;;;;;5060124;28;20045;-73
2023/06/03 12:22:21;;;;;;;5.28;4.60;;;28.60;96.70;;;;;;5061247;28;20055;-72
2023/06/03 12:24:50;;;;;;;4.55;3.85;;;28.40;96.70;;;;;;5062666;28;20366;-72
2023/06/03 12:27:21;;;;;;;3.80;3.50;;;28.00;96.70;;;;;;5062508;28;20438;-72
2023/06/03 12:29:53;;;;;;;5.93;3.88;;;28.00;96.70;;;;;;5059911;28;20102;-72
2023/06/03 12:32:25;;;;;;;4.97;4.00;;;27.90;96.70;;;;;;5060664;28;20104;-73
2023/06/03 12:34:54;;;;;;;4.65;3.55;;;27.60;96.70;;;;;;5094349;28;20080;-72
2023/06/03 12:37:29;;;;;;;7.07;4.07;;;27.30;96.70;;;;;;5062749;28;20119;-72
2023/06/03 12:39:58;;;;;;;4.95;3.97;;;27.00;96.70;;;;;;5061090;28;20417;-72
2023/06/03 12:42:37;;;;;;;4.68;4.13;;;26.80;96.70;;;;;;5062274;28;20525;-72
2023/06/03 12:45:07;;;;;;;5.55;3.95;;;26.70;96.70;;;;;;5061098;28;20567;-72
2023/06/03 12:47:47;;;;;;;4.22;3.75;;;26.60;96.70;;;;;;5061598;28;20048;-72
2023/06/03 12:50:18;;;;;;;3.70;3.40;;;26.50;96.70;;;;;;5059746;28;20051;-72
2023/06/03 12:52:47;;;;;;;4.95;4.20;;;26.50;96.70;;;;;;5058569;28;20053;-72
2023/06/03 12:55:17;;;;;;;4.97;3.88;;;26.40;96.70;;;;;;5062068;28;20044;-72
2023/06/03 12:57:46;;;;;;;7.78;3.88;;;26.30;96.70;;;;;;5062496;28;20079;-72
2023/06/03 13:00:18;;;;;;;5.07;4.07;;;26.20;96.70;;;;;;5061810;28;20048;-72
2023/06/03 13:02:50;;;;;;;4.40;3.95;;;26.10;96.70;;;;;;5064237;28;20055;-72
2023/06/03 13:05:21;;;;;;;4.57;3.80;;;26.10;96.70;;;;;;5065796;28;20123;-72
2023/06/03 13:07:50;;;;;;;6.88;4.20;;;26.10;96.70;;;;;;5061746;28;20053;-72
2023/06/03 13:10:18;;;;;;;4.35;3.95;;;25.90;96.70;;;;;;5065553;28;20102;-72